Time;durP1;ratioP1;P1;durP2;ratioP2;P2;SDS_P1;SDS_P2;PMS_P1;PMS_P2;Temp;Humidity;BMP_temperature;BMP_pressure;BME280_temperature;BME280_humidity;BME280_pressure;Samples;Min_cycle;Max_cycle;Signal;HPM_P1;HPM_P2
2023/08/02 00:01:45;;;;;;;16.02;4.22;;;;;;;14.52;100.00;99962.13;5060810;28;20021;-66
2023/08/02 00:04:11;;;;;;;17.23;4.70;;;;;;;14.47;100.00;99962.25;5056620;28;20033;-66
2023/08/02 00:06:36;;;;;;;17.88;4.38;;;;;;;14.42;100.00;99953.53;5063269;28;20111;-81
2023/08/02 00:09:02;;;;;;;19.00;4.60;;;;;;;14.37;100.00;99960.75;5061702;28;20040;-67
2023/08/02 00:11:28;;;;;;;17.77;4.40;;;;;;;14.33;100.00;99964.38;5062594;28;20033;-67
2023/08/02 00:13:53;;;;;;;16.25;4.35;;;;;;;14.28;100.00;99962.75;5062637;28;20048;-66
2023/08/02 00:16:18;;;;;;;16.80;4.47;;;;;;;14.26;100.00;99967.22;5060880;28;20088;-68
2023/08/02 00:18:44;;;;;;;16.98;4.25;;;;;;;14.22;100.00;99976.16;5064110;28;20044;-66
2023/08/02 00:21:09;;;;;;;19.00;4.78;;;;;;;14.23;100.00;99977.06;5060565;28;20029;-67
2023/08/02 00:23:34;;;;;;;16.75;4.10;;;;;;;14.15;100.00;99966.59;5062836;28;20037;-77
2023/08/02 00:26:00;;;;;;;18.17;4.70;;;;;;;14.15;100.00;99976.34;5062178;28;20032;-81
2023/08/02 00:28:25;;;;;;;17.40;4.22;;;;;;;14.16;100.00;99971.00;5061523;28;20064;-68
2023/08/02 00:30:50;;;;;;;16.50;4.20;;;;;;;14.20;100.00;99964.72;5063280;28;20028;-66
2023/08/02 00:33:16;;;;;;;18.35;4.32;;;;;;;14.20;100.00;99969.13;5060171;28;20033;-70
2023/08/02 00:35:45;;;;;;;15.32;4.20;;;;;;;14.24;100.00;99973.47;5056199;28;20029;-66
2023/08/02 00:38:11;;;;;;;17.17;4.30;;;;;;;14.28;100.00;99964.50;5064068;28;20484;-70
2023/08/02 00:40:37;;;;;;;17.67;4.20;;;;;;;14.32;100.00;99950.22;5060984;28;20069;-67
2023/08/02 00:43:02;;;;;;;18.13;4.53;;;;;;;14.37;100.00;99944.78;5060972;28;20029;-75
2023/08/02 00:45:27;;;;;;;17.90;4.45;;;;;;;14.38;100.00;99946.56;5062232;28;20049;-80
2023/08/02 00:47:53;;;;;;;16.33;4.20;;;;;;;14.41;100.00;99941.16;5059829;28;20041;-69
2023/08/02 00:50:21;;;;;;;16.77;4.28;;;;;;;14.43;100.00;99934.00;5063288;28;20029;-66
2023/08/02 00:52:47;;;;;;;17.50;4.40;;;;;;;14.43;100.00;99918.94;5060320;28;20108;-69
2023/08/02 00:55:12;;;;;;;16.50;4.28;;;;;;;14.45;100.00;99911.78;5066868;28;20037;-75
2023/08/02 00:57:38;;;;;;;18.55;4.65;;;;;;;14.46;100.00;99902.91;5063975;28;20040;-66
2023/08/02 01:00:04;;;;;;;17.90;4.32;;;;;;;14.50;100.00;99908.13;5066172;28;20036;-67
2023/08/02 01:02:29;;;;;;;17.08;4.20;;;;;;;14.51;100.00;99910.75;5065131;28;20054;-81
2023/08/02 01:04:55;;;;;;;16.13;4.30;;;;;;;14.53;100.00;99914.22;5064674;28;20037;-80
2023/08/02 01:07:28;;;;;;;15.18;3.90;;;;;;;14.58;100.00;99907.00;5066543;28;20024;-66
2023/08/02 01:10:01;;;;;;;16.02;4.22;;;;;;;14.61;100.00;99906.97;5064238;28;20037;-66
2023/08/02 01:12:29;;;;;;;16.50;4.00;;;;;;;14.66;100.00;99914.81;5065088;28;20056;-80
2023/08/02 01:14:56;;;;;;;16.45;3.97;;;;;;;14.65;100.00;99905.09;5064388;28;20037;-66
2023/08/02 01:17:24;;;;;;;17.02;4.50;;;;;;;14.67;100.00;99918.34;5066281;28;20029;-66
2023/08/02 01:19:49;;;;;;;16.92;4.10;;;;;;;14.68;100.00;99920.06;5063655;28;20533;-80
2023/08/02 01:22:14;;;;;;;16.08;4.20;;;;;;;14.69;100.00;99914.72;5066657;28;20063;-66
2023/08/02 01:24:40;;;;;;;19.00;4.32;;;;;;;14.71;100.00;99906.69;5063516;28;20051;-72
2023/08/02 01:27:09;;;;;;;16.50;4.10;;;;;;;14.71;100.00;99912.91;5065632;28;20451;-71
2023/08/02 01:29:37;;;;;;;16.45;4.00;;;;;;;14.72;100.00;99904.03;5064045;28;20379;-66
2023/08/02 01:32:05;;;;;;;18.27;4.50;;;;;;;14.73;100.00;99905.75;5064037;28;20474;-67
2023/08/02 01:34:30;;;;;;;18.08;4.45;;;;;;;14.74;100.00;99893.34;5064662;28;20150;-75
2023/08/02 01:36:56;;;;;;;18.00;4.20;;;;;;;14.72;100.00;99892.47;5064124;28;20485;-68
2023/08/02 01:39:21;;;;;;;17.88;4.30;;;;;;;14.75;100.00;99905.69;5065996;28;20028;-66
2023/08/02 01:41:46;;;;;;;18.45;4.40;;;;;;;14.78;100.00;99894.97;5062885;28;20494;-66
2023/08/02 01:44:11;;;;;;;17.63;4.22;;;;;;;14.78;100.00;99884.31;5066493;28;20394;-66
2023/08/02 01:46:37;;;;;;;16.98;4.20;;;;;;;14.78;100.00;99879.91;5063522;28;20025;-81
2023/08/02 01:49:02;;;;;;;17.02;4.43;;;;;;;14.73;100.00;99871.16;5065092;28;20119;-80
2023/08/02 01:51:27;;;;;;;16.25;4.20;;;;;;;14.75;100.00;99872.00;5064681;28;20059;-80
2023/08/02 01:53:53;;;;;;;18.05;4.40;;;;;;;14.74;100.00;99866.75;5063426;28;20118;-77
2023/08/02 01:56:18;;;;;;;16.55;4.40;;;;;;;14.70;100.00;99867.72;5065747;28;20086;-66
2023/08/02 01:58:44;;;;;;;19.02;4.60;;;;;;;14.70;100.00;99865.06;5061492;28;20021;-67
2023/08/02 02:01:09;;;;;;;18.35;4.72;;;;;;;14.67;100.00;99863.38;5065539;28;20029;-66
2023/08/02 02:03:34;;;;;;;18.77;4.78;;;;;;;14.59;100.00;99852.03;5063574;28;20133;-67
2023/08/02 02:06:00;;;;;;;18.88;4.70;;;;;;;14.54;100.00;99845.97;5063239;28;20040;-66
2023/08/02 02:08:25;;;;;;;18.75;4.40;;;;;;;14.48;100.00;99842.56;5064529;28;20026;-66
2023/08/02 02:10:51;;;;;;;18.95;4.70;;;;;;;14.45;100.00;99832.00;5062733;28;20021;-65
2023/08/02 02:13:18;;;;;;;19.08;4.72;;;;;;;14.42;100.00;99826.78;5065795;28;20079;-66
2023/08/02 02:15:43;;;;;;;17.02;4.45;;;;;;;14.42;100.00;99833.91;5058180;28;20040;-66
2023/08/02 02:18:09;;;;;;;19.77;4.90;;;;;;;14.46;100.00;99819.63;5065336;28;20490;-66
2023/08/02 02:20:34;;;;;;;17.23;4.38;;;;;;;14.50;100.00;99807.94;5063401;28;20078;-66
2023/08/02 02:22:59;;;;;;;17.27;4.45;;;;;;;14.52;100.00;99808.78;5062376;28;20419;-66
2023/08/02 02:25:25;;;;;;;16.58;4.20;;;;;;;14.53;100.00;99796.34;5064453;28;20032;-66
2023/08/02 02:27:50;;;;;;;18.45;4.72;;;;;;;14.53;100.00;99786.59;5062240;28;20025;-66
2023/08/02 02:30:16;;;;;;;19.67;4.32;;;;;;;14.55;100.00;99781.25;5065410;28;20043;-66
2023/08/02 02:32:41;;;;;;;15.70;4.40;;;;;;;14.57;100.00;99766.09;5062119;28;20028;-66
2023/08/02 02:35:07;;;;;;;18.33;4.55;;;;;;;14.57;100.00;99772.28;5064447;28;20036;-66
2023/08/02 02:37:32;;;;;;;18.30;4.53;;;;;;;14.59;100.00;99770.47;5063114;28;20037;-66
2023/08/02 02:39:58;;;;;;;17.33;4.30;;;;;;;14.60;100.00;99774.00;5063300;28;20024;-66
2023/08/02 02:42:23;;;;;;;18.98;4.60;;;;;;;14.61;100.00;99771.31;5064293;28;20027;-66
2023/08/02 02:44:48;;;;;;;14.50;4.10;;;;;;;14.62;100.00;99766.88;5061633;28;20041;-66
2023/08/02 02:47:14;;;;;;;16.85;4.38;;;;;;;14.64;100.00;99762.38;5065207;28;20028;-66
2023/08/02 02:49:39;;;;;;;17.35;4.53;;;;;;;14.64;100.00;99763.25;5061996;28;20028;-66
2023/08/02 02:52:05;;;;;;;16.25;4.47;;;;;;;14.67;100.00;99764.09;5063851;28;20571;-66
2023/08/02 02:54:30;;;;;;;18.35;4.50;;;;;;;14.67;100.00;99766.75;5063462;28;20112;-66
2023/08/02 02:56:56;;;;;;;15.88;4.43;;;;;;;14.68;100.00;99772.03;5062557;28;20025;-80
2023/08/02 02:59:21;;;;;;;17.48;4.30;;;;;;;14.68;100.00;99766.72;5064259;28;20044;-66
2023/08/02 03:01:46;;;;;;;16.25;4.32;;;;;;;14.69;100.00;99751.59;5061676;28;20021;-66
2023/08/02 03:04:12;;;;;;;17.10;4.40;;;;;;;14.71;100.00;99752.41;5064709;28;20115;-83
2023/08/02 03:06:37;;;;;;;17.40;4.28;;;;;;;14.71;100.00;99740.00;5061765;28;20072;-82
2023/08/02 03:09:03;;;;;;;17.58;4.38;;;;;;;14.71;100.00;99724.06;5062488;28;20033;-77
2023/08/02 03:11:29;;;;;;;18.13;4.40;;;;;;;14.72;100.00;99707.19;5062674;28;20032;-66
2023/08/02 03:13:54;;;;;;;16.33;4.20;;;;;;;14.74;100.00;99689.38;5062266;28;20041;-66
2023/08/02 03:16:19;;;;;;;18.63;4.50;;;;;;;14.74;100.00;99689.38;5063643;28;20415;-66
2023/08/02 03:18:45;;;;;;;16.27;4.20;;;;;;;14.77;100.00;99683.09;5061038;28;20029;-66
2023/08/02 03:21:10;;;;;;;17.63;4.32;;;;;;;14.69;100.00;99677.13;5064625;28;20128;-68
2023/08/02 03:23:36;;;;;;;17.65;4.53;;;;;;;14.59;100.00;99669.41;5061535;28;20032;-66
2023/08/02 03:26:01;;;;;;;15.93;4.70;;;;;;;14.54;100.00;99666.00;5063033;28;20036;-66
2023/08/02 03:28:27;;;;;;;16.75;4.75;;;;;;;14.51;100.00;99667.91;5063065;28;20032;-67
2023/08/02 03:30:55;;;;;;;16.25;4.57;;;;;;;14.51;100.00;99660.78;5061633;28;20114;-66
2023/08/02 03:33:20;;;;;;;17.90;4.65;;;;;;;14.54;100.00;99665.16;5063484;28;20035;-67
2023/08/02 03:35:45;;;;;;;17.92;4.80;;;;;;;14.57;100.00;99671.22;5061161;28;20060;-67
2023/08/02 03:38:11;;;;;;;16.20;4.55;;;;;;;14.59;100.00;99671.19;5064246;28;20030;-67
2023/08/02 03:40:36;;;;;;;17.35;4.57;;;;;;;14.59;100.00;99658.78;5061376;28;20051;-66
2023/08/02 03:43:02;;;;;;;16.92;4.80;;;;;;;14.62;100.00;99663.16;5063156;28;20029;-67
2023/08/02 03:45:27;;;;;;;18.05;5.03;;;;;;;14.64;100.00;99658.66;5062498;28;20116;-73
2023/08/02 03:47:52;;;;;;;18.48;4.97;;;;;;;14.66;100.00;99648.84;5061790;28;20384;-80
2023/08/02 03:50:18;;;;;;;17.05;4.60;;;;;;;14.68;100.00;99646.13;5063801;28;20371;-66
2023/08/02 03:52:43;;;;;;;16.48;4.57;;;;;;;14.68;100.00;99640.81;5060909;28;20053;-68
2023/08/02 03:55:08;;;;;;;16.08;4.60;;;;;;;14.67;100.00;99628.44;5063942;28;20039;-68
2023/08/02 03:57:34;;;;;;;17.70;5.15;;;;;;;14.66;100.00;99630.22;5061691;28;20043;-66
2023/08/02 03:59:59;;;;;;;17.20;4.78;;;;;;;14.67;100.00;99626.66;5062411;28;20033;-66
2023/08/02 04:02:24;;;;;;;19.33;4.97;;;;;;;14.68;100.00;99612.44;5062990;28;20017;-70
2023/08/02 04:04:50;;;;;;;18.17;5.07;;;;;;;14.68;100.00;99603.56;5061054;28;20045;-67
2023/08/02 04:07:15;;;;;;;17.38;4.80;;;;;;;14.68;100.00;99598.25;5063992;28;20071;-70
2023/08/02 04:09:40;;;;;;;18.73;4.90;;;;;;;14.67;100.00;99588.56;5060730;28;20075;-74
2023/08/02 04:12:06;;;;;;;16.83;4.90;;;;;;;14.67;100.00;99588.56;5061101;28;20039;-82
2023/08/02 04:14:32;;;;;;;17.02;4.90;;;;;;;14.68;100.00;99584.94;5062499;28;20029;-66
2023/08/02 04:16:57;;;;;;;18.63;5.18;;;;;;;14.67;100.00;99572.59;5062644;28;20159;-66
2023/08/02 04:19:22;;;;;;;18.23;5.05;;;;;;;14.66;100.00;99566.38;5061270;28;20029;-66
2023/08/02 04:21:48;;;;;;;18.08;5.25;;;;;;;14.67;100.00;99564.63;5063776;28;20064;-67
2023/08/02 04:24:13;;;;;;;18.52;5.47;;;;;;;14.67;100.00;99562.81;5060334;28;20029;-66
2023/08/02 04:26:38;;;;;;;19.73;5.30;;;;;;;14.67;100.00;99553.97;5062218;28;20060;-73
2023/08/02 04:29:04;;;;;;;18.50;5.03;;;;;;;14.66;100.00;99538.94;5061936;28;20025;-67
2023/08/02 04:31:29;;;;;;;17.55;5.20;;;;;;;14.67;100.00;99533.56;5065874;28;20032;-68
2023/08/02 04:33:56;;;;;;;18.75;5.45;;;;;;;14.68;100.00;99529.09;5066287;28;20033;-66
2023/08/02 04:36:21;;;;;;;17.92;5.35;;;;;;;14.69;100.00;99530.84;5064885;28;20025;-66
2023/08/02 04:38:46;;;;;;;19.45;5.82;;;;;;;14.70;100.00;99520.16;5067572;28;20037;-66
2023/08/02 04:41:16;;;;;;;18.05;5.40;;;;;;;14.72;100.00;99509.47;5059835;28;20021;-69
2023/08/02 04:43:41;;;;;;;17.73;5.65;;;;;;;14.72;100.00;99502.38;5067669;28;20180;-66
2023/08/02 04:46:06;;;;;;;17.70;5.38;;;;;;;14.75;100.00;99491.63;5064495;28;20581;-66
2023/08/02 04:48:32;;;;;;;16.23;4.97;;;;;;;14.77;100.00;99491.56;5065908;28;20033;-66
2023/08/02 04:50:57;;;;;;;18.00;5.53;;;;;;;14.78;100.00;99469.34;5066060;28;20027;-66
2023/08/02 04:53:22;;;;;;;20.65;5.63;;;;;;;14.80;100.00;99467.53;5067081;28;20028;-66
2023/08/02 04:55:48;;;;;;;19.10;5.78;;;;;;;14.82;100.00;99471.00;5063752;28;20040;-66
2023/08/02 04:58:13;;;;;;;18.40;5.68;;;;;;;14.84;100.00;99474.47;5067126;28;20036;-66
2023/08/02 05:00:39;;;;;;;18.60;5.57;;;;;;;14.79;100.00;99458.69;5064564;28;20467;-66
2023/08/02 05:03:04;;;;;;;19.48;5.80;;;;;;;14.80;100.00;99454.22;5065588;28;20037;-67
2023/08/02 05:05:31;;;;;;;18.73;5.95;;;;;;;14.80;100.00;99462.22;5065738;28;20050;-66
2023/08/02 05:07:57;;;;;;;20.23;6.00;;;;;;;14.78;100.00;99456.06;5064194;28;20111;-66
2023/08/02 05:10:22;;;;;;;18.90;5.70;;;;;;;14.70;100.00;99443.03;5066990;28;20212;-66
2023/08/02 05:12:48;;;;;;;19.55;6.30;;;;;;;14.60;100.00;99446.91;5063389;28;20073;-66
2023/08/02 05:15:14;;;;;;;19.85;6.10;;;;;;;14.49;100.00;99447.28;5066464;28;20513;-67
2023/08/02 05:17:39;;;;;;;21.13;7.10;;;;;;;14.48;100.00;99450.84;5064500;28;20051;-81
2023/08/02 05:20:05;;;;;;;20.52;6.88;;;;;;;14.44;100.00;99442.09;5063926;28;20027;-81
2023/08/02 05:22:31;;;;;;;21.40;7.20;;;;;;;14.42;100.00;99427.13;5065516;28;20028;-82
2023/08/02 05:24:56;;;;;;;21.13;7.38;;;;;;;14.42;100.00;99435.13;5064204;28;20108;-66
2023/08/02 05:27:22;;;;;;;20.38;6.93;;;;;;;14.41;100.00;99425.38;5066578;28;20027;-77
2023/08/02 05:29:47;;;;;;;21.42;7.10;;;;;;;14.38;100.00;99425.50;5063150;28;20090;-78
2023/08/02 05:32:12;;;;;;;20.73;7.43;;;;;;;14.37;100.00;99415.78;5062962;28;20036;-76
2023/08/02 05:34:38;;;;;;;19.17;7.20;;;;;;;14.36;100.00;99406.06;5064711;28;20029;-77
2023/08/02 05:37:04;;;;;;;20.83;7.10;;;;;;;14.36;100.00;99398.06;5065334;28;20033;-79
2023/08/02 05:39:29;;;;;;;21.98;7.43;;;;;;;14.34;100.00;99387.50;5064568;28;20063;-79
2023/08/02 05:41:54;;;;;;;20.50;7.72;;;;;;;14.33;100.00;99385.78;5064181;28;20472;-79
2023/08/02 05:44:19;;;;;;;20.77;7.78;;;;;;;14.29;100.00;99379.69;5065393;28;20360;-84
2023/08/02 05:46:45;;;;;;;21.58;7.88;;;;;;;14.28;100.00;99383.28;5062757;28;20445;-79
2023/08/02 05:49:10;;;;;;;19.83;7.60;;;;;;;14.27;100.00;99370.91;5066025;28;20081;-83
2023/08/02 05:51:35;;;;;;;21.33;7.90;;;;;;;14.30;100.00;99372.59;5063344;28;20124;-79
2023/08/02 05:54:01;;;;;;;22.13;8.10;;;;;;;14.31;100.00;99371.66;5063371;28;20044;-82
2023/08/02 05:56:26;;;;;;;20.63;7.97;;;;;;;14.35;100.00;99369.78;5064355;28;20023;-82
2023/08/02 05:58:51;;;;;;;22.88;8.10;;;;;;;14.37;100.00;99359.94;5067381;28;20433;-80
2023/08/02 06:01:17;;;;;;;19.98;7.45;;;;;;;14.32;100.00;99345.97;5064988;28;20036;-82
2023/08/02 06:03:42;;;;;;;20.70;7.85;;;;;;;14.36;100.00;99332.50;5063391;28;20539;-80
2023/08/02 06:06:08;;;;;;;19.52;7.15;;;;;;;14.38;100.00;99319.16;5065917;28;20020;-78
2023/08/02 06:08:33;;;;;;;19.38;7.20;;;;;;;14.42;100.00;99318.13;5062322;28;20121;-77
2023/08/02 06:11:00;;;;;;;19.33;6.65;;;;;;;14.43;100.00;99314.53;5064848;28;20028;-81
2023/08/02 06:13:26;;;;;;;19.58;7.00;;;;;;;14.45;100.00;99310.06;5063347;28;20094;-78
2023/08/02 06:15:51;;;;;;;19.70;6.60;;;;;;;14.44;100.00;99303.00;5062487;28;20032;-79
2023/08/02 06:18:17;;;;;;;19.17;6.65;;;;;;;14.43;100.00;99294.16;5064335;28;20029;-76
2023/08/02 06:20:42;;;;;;;18.30;6.10;;;;;;;14.44;100.00;99292.34;5062522;28;20476;-79
2023/08/02 06:23:07;;;;;;;18.92;6.40;;;;;;;14.46;100.00;99286.06;5065424;28;20025;-79
2023/08/02 06:25:33;;;;;;;18.95;6.68;;;;;;;14.50;100.00;99272.66;5062264;28;20120;-79
2023/08/02 06:27:58;;;;;;;17.30;5.88;;;;;;;14.50;100.00;99270.84;5064521;28;20057;-80
2023/08/02 06:30:24;;;;;;;18.00;6.25;;;;;;;14.48;100.00;99264.75;5061725;28;20086;-75
2023/08/02 06:32:49;;;;;;;18.50;6.05;;;;;;;14.53;100.00;99259.25;5064655;28;20090;-77
2023/08/02 06:35:14;;;;;;;17.45;6.20;;;;;;;14.54;100.00;99261.84;5063018;28;20036;-79
2023/08/02 06:37:40;;;;;;;18.77;6.60;;;;;;;14.59;100.00;99251.03;5063157;28;20104;-77
2023/08/02 06:40:06;;;;;;;18.20;6.30;;;;;;;14.60;100.00;99240.34;5064650;28;20045;-79
2023/08/02 06:42:31;;;;;;;17.17;6.20;;;;;;;14.56;100.00;99232.53;5060514;28;20033;-87
2023/08/02 06:44:57;;;;;;;17.33;6.07;;;;;;;14.55;100.00;99222.84;5065036;28;20509;-78
2023/08/02 06:47:22;;;;;;;18.58;6.22;;;;;;;14.55;100.00;99218.41;5062014;28;20029;-81
2023/08/02 06:49:48;;;;;;;18.20;6.25;;;;;;;14.56;100.00;99208.63;5061555;28;20075;-78
2023/08/02 06:52:13;;;;;;;16.48;5.68;;;;;;;14.53;100.00;99206.94;5062525;28;20099;-81
2023/08/02 06:54:38;;;;;;;16.50;5.43;;;;;;;14.54;100.00;99207.81;5055001;28;20078;-79
2023/08/02 06:57:04;;;;;;;18.17;5.82;;;;;;;14.55;100.00;99199.78;5063891;28;20471;-81
2023/08/02 06:59:29;;;;;;;17.17;5.72;;;;;;;14.58;100.00;99191.69;5061506;28;20460;-81
2023/08/02 07:01:56;;;;;;;16.90;5.40;;;;;;;14.58;100.00;99182.84;5064187;28;20040;-79
2023/08/02 07:04:21;;;;;;;17.13;5.85;;;;;;;14.55;100.00;99165.22;5061607;28;20060;-81
2023/08/02 07:06:47;;;;;;;17.17;5.50;;;;;;;14.56;100.00;99166.97;5061143;28;20071;-81
2023/08/02 07:09:14;;;;;;;17.70;5.80;;;;;;;14.59;100.00;99157.97;5054270;28;20036;-80
2023/08/02 07:11:39;;;;;;;18.27;5.97;;;;;;;14.61;100.00;99148.16;5064525;28;20025;-81
2023/08/02 07:14:04;;;;;;;17.92;5.78;;;;;;;14.65;100.00;99147.16;5061066;28;20404;-81
2023/08/02 07:16:30;;;;;;;17.90;5.93;;;;;;;14.68;100.00;99151.47;5063708;28;20395;-81
2023/08/02 07:18:55;;;;;;;16.45;5.50;;;;;;;14.66;100.00;99159.50;5062307;28;20389;-66
2023/08/02 07:21:20;;;;;;;18.00;5.82;;;;;;;14.70;100.00;99149.63;5062712;28;20025;-66
2023/08/02 07:23:46;;;;;;;16.23;5.50;;;;;;;14.71;100.00;99146.00;5062416;28;20032;-66
2023/08/02 07:26:11;;;;;;;16.35;5.80;;;;;;;14.74;100.00;99143.25;5061150;28;20106;-66
2023/08/02 07:28:36;;;;;;;17.58;6.03;;;;;;;14.76;100.00;99134.28;5064703;28;20028;-67
2023/08/02 07:31:10;;;;;;;17.60;6.20;;;;;;;14.81;100.00;99142.09;5061318;28;20111;-66
2023/08/02 07:33:36;;;;;;;16.88;5.90;;;;;;;14.84;100.00;99131.31;5056809;28;20029;-67
2023/08/02 07:36:02;;;;;;;18.80;6.70;;;;;;;14.91;100.00;99135.47;5063809;28;20533;-66
2023/08/02 07:38:27;;;;;;;18.08;6.13;;;;;;;14.96;100.00;99130.81;5062279;28;20055;-68
2023/08/02 07:40:53;;;;;;;18.60;6.60;;;;;;;14.97;100.00;99115.75;5062545;28;20026;-67
2023/08/02 07:43:18;;;;;;;17.13;6.20;;;;;;;15.09;100.00;99115.22;5063179;28;20020;-66
2023/08/02 07:45:44;;;;;;;16.73;6.10;;;;;;;15.22;100.00;99104.94;5061336;28;20107;-70
2023/08/02 07:48:09;;;;;;;17.20;6.18;;;;;;;15.37;100.00;99106.06;5064182;28;20482;-66
2023/08/02 07:50:35;;;;;;;17.83;6.40;;;;;;;15.44;100.00;99096.88;5061052;28;20431;-67
2023/08/02 07:53:00;;;;;;;17.20;6.20;;;;;;;15.43;100.00;99092.47;5063376;28;20041;-66
2023/08/02 07:55:26;;;;;;;17.38;5.57;;;;;;;15.41;100.00;99088.19;5062237;28;20029;-66
2023/08/02 07:57:51;;;;;;;15.82;5.38;;;;;;;15.40;100.00;99087.28;5062613;28;20040;-66
2023/08/02 08:00:17;;;;;;;17.75;5.60;;;;;;;15.48;100.00;99084.31;5063424;28;20050;-66
2023/08/02 08:02:42;;;;;;;17.30;5.55;;;;;;;15.50;100.00;99069.13;5062155;28;20029;-66
2023/08/02 08:05:08;;;;;;;15.52;5.18;;;;;;;15.54;100.00;99068.06;5068125;28;20135;-66
2023/08/02 08:07:34;;;;;;;15.95;5.18;;;;;;;15.58;100.00;99082.09;5064890;28;20166;-66
2023/08/02 08:09:59;;;;;;;14.98;4.90;;;;;;;15.61;100.00;99061.53;5067379;28;20029;-66
2023/08/02 08:12:27;;;;;;;14.35;4.80;;;;;;;15.67;100.00;99061.25;5066067;28;20513;-66
2023/08/02 08:14:53;;;;;;;14.25;4.60;;;;;;;15.67;100.00;99069.25;5066240;28;20025;-66
2023/08/02 08:17:18;;;;;;;14.38;4.60;;;;;;;15.58;100.00;99059.00;5067217;28;20036;-66
2023/08/02 08:19:44;;;;;;;13.02;4.45;;;;;;;15.55;100.00;99068.91;5064702;28;20029;-66
2023/08/02 08:22:09;;;;;;;13.52;4.50;;;;;;;15.52;100.00;99062.81;5067799;28;20028;-66
2023/08/02 08:24:35;;;;;;;15.40;4.32;;;;;;;15.68;100.00;99052.34;5061603;28;20107;-76
2023/08/02 08:27:00;;;;;;;14.98;4.60;;;;;;;15.84;100.00;99033.00;5063863;28;20049;-82
2023/08/02 08:29:29;;;;;;;13.50;4.50;;;;;;;15.93;100.00;99037.94;5067572;28;20051;-79
2023/08/02 08:31:54;;;;;;;11.60;3.88;;;;;;;15.93;100.00;99045.91;5064349;28;20041;-81
2023/08/02 08:34:20;;;;;;;11.05;3.75;;;;;;;15.89;100.00;99052.31;5066260;28;20482;-81
2023/08/02 08:36:46;;;;;;;9.57;3.70;;;;;;;15.86;100.00;99058.66;5064784;28;20033;-82
2023/08/02 08:39:11;;;;;;;10.05;3.83;;;;;;;15.94;100.00;99054.75;5063910;28;20029;-79
2023/08/02 08:41:36;;;;;;;9.95;3.80;;;;;;;15.94;100.00;99050.28;5066407;28;20549;-77
2023/08/02 08:44:03;;;;;;;12.88;4.18;;;;;;;16.02;100.00;99045.47;5065348;28;20120;-80
2023/08/02 08:46:33;;;;;;;10.15;4.05;;;;;;;16.16;100.00;99051.97;5065226;28;20025;-83
2023/08/02 08:49:02;;;;;;;14.15;4.30;;;;;;;16.24;100.00;99049.81;5065847;28;20549;-82
2023/08/02 08:51:32;;;;;;;15.13;4.60;;;;;;;16.36;100.00;99046.53;5064928;28;20445;-82
2023/08/02 08:54:01;;;;;;;14.00;4.90;;;;;;;16.37;100.00;99052.75;5066276;28;20395;-82
2023/08/02 08:56:27;;;;;;;15.88;5.30;;;;;;;16.43;100.00;99040.94;5064445;28;20021;-66
2023/08/02 08:58:53;;;;;;;15.02;5.10;;;;;;;16.50;100.00;99040.56;5066626;28;20104;-66
2023/08/02 09:01:19;;;;;;;13.52;5.47;;;;;;;16.59;100.00;99044.56;5064079;28;20104;-66
2023/08/02 09:03:45;;;;;;;13.90;5.55;;;;;;;16.73;100.00;99034.09;5067195;28;20104;-66
2023/08/02 09:06:15;;;;;;;14.27;5.57;;;;;;;16.84;100.00;99032.69;5064010;28;20025;-66
2023/08/02 09:08:47;;;;;;;17.38;6.05;;;;;;;17.20;100.00;99026.47;5066637;28;20024;-66
2023/08/02 09:11:13;;;;;;;15.90;5.97;;;;;;;17.26;100.00;99018.13;5063924;28;20067;-67
2023/08/02 09:13:38;;;;;;;15.15;6.10;;;;;;;17.28;100.00;99018.03;5065802;28;20080;-66
2023/08/02 09:16:08;;;;;;;15.38;6.10;;;;;;;17.26;100.00;99012.78;5064444;28;20029;-66
2023/08/02 09:18:38;;;;;;;16.58;6.00;;;;;;;17.37;100.00;99013.09;5065523;28;20029;-66
2023/08/02 09:21:05;;;;;;;13.20;5.47;;;;;;;17.30;100.00;99001.00;5064664;28;20149;-66
2023/08/02 09:23:31;;;;;;;15.27;6.32;;;;;;;17.62;100.00;98998.44;5064725;28;20362;-66
2023/08/02 09:26:12;;;;;;;15.05;6.28;;;;;;;17.71;100.00;99000.59;5065871;28;20039;-66
2023/08/02 09:28:38;;;;;;;12.40;5.43;;;;;;;17.66;100.00;98991.09;5065963;28;20056;-80
2023/08/02 09:31:16;;;;;;;12.48;5.32;;;;;;;17.69;100.00;98994.47;5064609;28;20106;-75
2023/08/02 09:33:50;;;;;;;13.38;5.40;;;;;;;17.60;100.00;98986.94;5064914;28;20032;-66
2023/08/02 09:36:26;;;;;;;13.60;5.63;;;;;;;17.63;100.00;98986.78;5059316;28;20024;-66
2023/08/02 09:39:13;;;;;;;14.95;5.70;;;;;;;17.77;100.00;98992.22;5060358;28;20104;-66
2023/08/02 09:41:38;;;;;;;13.23;5.13;;;;;;;17.77;100.00;98984.22;5062836;28;20371;-66
2023/08/02 09:44:06;;;;;;;11.70;4.80;;;;;;;17.94;100.00;98979.81;5064754;28;20029;-66
2023/08/02 09:46:36;;;;;;;9.82;4.60;;;;;;;18.30;100.00;98970.63;5064529;28;20032;-67
2023/08/02 09:49:16;;;;;;;9.77;4.00;;;;;;;18.57;100.00;98978.03;5064581;28;20065;-66
2023/08/02 09:51:44;;;;;;;7.78;3.60;;;;;;;18.68;100.00;98972.91;5063357;28;20041;-66
2023/08/02 09:54:11;;;;;;;6.65;3.50;;;;;;;18.86;100.00;98967.41;5065401;28;20025;-66
2023/08/02 09:56:39;;;;;;;5.22;3.20;;;;;;;18.99;100.00;98955.06;5063679;28;20082;-66
2023/08/02 09:59:06;;;;;;;8.00;3.30;;;;;;;19.11;100.00;98946.28;5064950;28;20068;-66
2023/08/02 10:01:32;;;;;;;6.85;2.97;;;;;;;19.06;100.00;98953.75;5064248;28;20027;-75
2023/08/02 10:04:01;;;;;;;7.30;2.60;;;;;;;18.92;100.00;98945.69;5063754;28;20227;-66
2023/08/02 10:06:49;;;;;;;6.10;2.80;;;;;;;18.75;100.00;98936.78;5065030;28;20035;-67
2023/08/02 10:09:19;;;;;;;5.78;2.70;;;;;;;18.74;100.00;98932.41;5058906;28;20036;-67
2023/08/02 10:11:53;;;;;;;4.13;2.70;;;;;;;19.32;100.00;98930.72;5058326;28;20029;-66
2023/08/02 10:14:19;;;;;;;6.45;2.60;;;;;;;20.42;100.00;98945.19;5058580;28;20037;-66
2023/08/02 10:16:45;;;;;;;5.25;2.40;;;;;;;20.64;100.00;98916.91;5065997;28;20381;-68
2023/08/02 10:19:12;;;;;;;3.80;2.45;;;;;;;21.01;100.00;98901.88;5062852;28;20028;-68
2023/08/02 10:21:39;;;;;;;3.45;2.30;;;;;;;20.85;100.00;98877.91;5064594;28;20036;-67
2023/08/02 10:24:05;;;;;;;3.35;2.20;;;;;;;20.76;100.00;98875.84;5063706;28;20032;-68
2023/08/02 10:26:31;;;;;;;3.33;2.20;;;;;;;20.77;100.00;98861.47;5060271;28;20029;-66
2023/08/02 10:29:02;;;;;;;4.97;2.35;;;;;;;21.25;100.00;98864.34;5065031;28;20024;-74
2023/08/02 10:31:27;;;;;;;5.55;2.20;;;;;;;21.58;100.00;98862.03;5061647;28;20111;-66
2023/08/02 10:33:52;;;;;;;4.03;2.25;;;;;;;20.73;100.00;98857.25;5064952;28;20166;-71
2023/08/02 10:36:18;;;;;;;4.70;2.50;;;;;;;20.04;100.00;98860.09;5062047;28;20029;-71
2023/08/02 10:38:44;;;;;;;4.18;2.35;;;;;;;19.77;100.00;98842.13;5064182;28;20605;-73
2023/08/02 10:41:14;;;;;;;4.35;2.60;;;;;;;19.77;100.00;98844.81;5063245;28;20025;-68
2023/08/02 10:43:51;;;;;;;6.00;2.53;;;;;;;19.72;100.00;98836.22;5063634;28;20017;-67
2023/08/02 10:46:29;;;;;;;4.82;2.47;;;;;;;19.62;100.00;98837.78;5062412;28;20075;-69
2023/08/02 10:49:15;;;;;;;6.18;2.60;;;;;;;19.51;100.00;98842.00;5058013;28;20051;-67
2023/08/02 10:51:42;;;;;;;5.80;2.70;;;;;;;19.30;100.00;98854.09;5062980;28;20028;-67
2023/08/02 10:54:19;;;;;;;4.63;2.70;;;;;;;19.13;100.00;98853.34;5063301;28;20075;-67
2023/08/02 10:56:54;;;;;;;4.63;2.70;;;;;;;18.89;100.00;98850.34;5062591;28;20360;-77
2023/08/02 10:59:22;;;;;;;8.57;3.28;;;;;;;18.60;100.00;98836.91;5064597;28;20116;-67
2023/08/02 11:02:07;;;;;;;7.28;3.10;;;;;;;18.58;100.00;98824.56;5061805;28;20028;-67
2023/08/02 11:04:37;;;;;;;8.00;3.30;;;;;;;18.69;100.00;98824.78;5059510;28;20032;-67
2023/08/02 11:07:13;;;;;;;9.02;3.50;;;;;;;18.57;100.00;98823.72;5063956;28;20017;-67
2023/08/02 11:09:38;;;;;;;8.57;3.42;;;;;;;18.54;100.00;98831.09;5062975;28;20103;-68
2023/08/02 11:12:15;;;;;;;8.45;3.60;;;;;;;18.37;100.00;98848.13;5063449;28;20031;-66
2023/08/02 11:14:42;;;;;;;7.35;3.47;;;;;;;18.25;100.00;98839.03;5063018;28;20108;-66
2023/08/02 11:17:08;;;;;;;10.93;3.72;;;;;;;18.16;100.00;98850.25;5060241;28;20767;-67